Terminal Aerodrome Forecast
Issued by NWS

Home | Current Version | Previous Version | Text Only | Print | Product List | Glossary On
Versions: 1 2 3 4 5 6 7 8 9 10 11 12 13 14 15 16 17 18 19 20 21 22 23
000
FTUS43 KMQT 101100
TAFSAW
TAF
KSAW 101121Z 1012/1112 VRB03KT P6SM SCT250
     FM101600 20006KT P6SM SCT060
     FM102000 16012KT P6SM SCT040
     FM110200 18007KT P6SM SCT200
      AMD LTD TO CLD VIS AND WIND 1102/1110=

USA.gov is the U.S. government's official web portal to all federal, state and local government web resources and services.